sensor_id;sensor_type;location;lat;lon;timestamp;P1;durP1;ratioP1;P2;durP2;ratioP2
14688;SDS011;7432;48.728;9.154;2023-08-31T00:02:22;4.77;;;4.10;;
14688;SDS011;7432;48.728;9.154;2023-08-31T00:04:50;6.23;;;4.57;;
14688;SDS011;7432;48.728;9.154;2023-08-31T00:07:17;4.90;;;4.50;;
14688;SDS011;7432;48.728;9.154;2023-08-31T00:09:43;4.80;;;4.40;;
14688;SDS011;7432;48.728;9.154;2023-08-31T00:12:10;5.60;;;4.20;;
14688;SDS011;7432;48.728;9.154;2023-08-31T00:14:38;4.80;;;4.20;;
14688;SDS011;7432;48.728;9.154;2023-08-31T00:17:04;4.60;;;4.10;;
14688;SDS011;7432;48.728;9.154;2023-08-31T00:19:30;4.43;;;4.03;;
14688;SDS011;7432;48.728;9.154;2023-08-31T00:21:57;4.50;;;4.20;;
14688;SDS011;7432;48.728;9.154;2023-08-31T00:24:23;4.80;;;4.40;;
14688;SDS011;7432;48.728;9.154;2023-08-31T00:26:54;6.50;;;5.13;;
14688;SDS011;7432;48.728;9.154;2023-08-31T00:29:21;5.07;;;4.57;;
14688;SDS011;7432;48.728;9.154;2023-08-31T00:31:49;4.97;;;4.47;;
14688;SDS011;7432;48.728;9.154;2023-08-31T00:34:16;4.63;;;4.33;;
14688;SDS011;7432;48.728;9.154;2023-08-31T00:36:42;5.47;;;4.97;;
14688;SDS011;7432;48.728;9.154;2023-08-31T00:39:09;5.30;;;4.80;;
14688;SDS011;7432;48.728;9.154;2023-08-31T00:41:35;5.20;;;4.80;;
14688;SDS011;7432;48.728;9.154;2023-08-31T00:44:02;5.60;;;5.00;;
14688;SDS011;7432;48.728;9.154;2023-08-31T00:46:30;5.80;;;5.20;;
14688;SDS011;7432;48.728;9.154;2023-08-31T00:48:58;5.40;;;5.00;;
14688;SDS011;7432;48.728;9.154;2023-08-31T00:51:24;5.40;;;5.00;;
14688;SDS011;7432;48.728;9.154;2023-08-31T00:53:51;4.77;;;4.47;;
14688;SDS011;7432;48.728;9.154;2023-08-31T00:56:19;5.30;;;4.80;;
14688;SDS011;7432;48.728;9.154;2023-08-31T00:58:46;6.40;;;5.00;;
14688;SDS011;7432;48.728;9.154;2023-08-31T01:01:14;5.37;;;4.97;;
14688;SDS011;7432;48.728;9.154;2023-08-31T01:03:48;5.40;;;4.67;;
14688;SDS011;7432;48.728;9.154;2023-08-31T01:06:23;5.03;;;4.70;;
14688;SDS011;7432;48.728;9.154;2023-08-31T01:09:02;5.23;;;4.83;;
14688;SDS011;7432;48.728;9.154;2023-08-31T01:11:38;6.03;;;5.50;;
14688;SDS011;7432;48.728;9.154;2023-08-31T01:14:11;5.10;;;4.80;;
14688;SDS011;7432;48.728;9.154;2023-08-31T01:16:42;5.80;;;5.07;;
14688;SDS011;7432;48.728;9.154;2023-08-31T01:19:14;6.17;;;4.93;;
14688;SDS011;7432;48.728;9.154;2023-08-31T01:21:52;5.50;;;5.10;;
14688;SDS011;7432;48.728;9.154;2023-08-31T01:24:25;5.40;;;4.90;;
14688;SDS011;7432;48.728;9.154;2023-08-31T01:26:51;5.70;;;5.13;;
14688;SDS011;7432;48.728;9.154;2023-08-31T01:29:19;5.60;;;5.10;;
14688;SDS011;7432;48.728;9.154;2023-08-31T01:31:45;5.20;;;4.70;;
14688;SDS011;7432;48.728;9.154;2023-08-31T01:34:12;5.30;;;4.80;;
14688;SDS011;7432;48.728;9.154;2023-08-31T01:36:38;5.03;;;4.63;;
14688;SDS011;7432;48.728;9.154;2023-08-31T01:39:10;6.13;;;5.20;;
14688;SDS011;7432;48.728;9.154;2023-08-31T01:41:43;5.30;;;4.77;;
14688;SDS011;7432;48.728;9.154;2023-08-31T01:44:15;5.50;;;5.00;;
14688;SDS011;7432;48.728;9.154;2023-08-31T01:46:45;6.10;;;5.50;;
14688;SDS011;7432;48.728;9.154;2023-08-31T01:49:12;5.73;;;5.20;;
14688;SDS011;7432;48.728;9.154;2023-08-31T01:51:39;5.67;;;5.07;;
14688;SDS011;7432;48.728;9.154;2023-08-31T01:54:05;5.00;;;4.70;;
14688;SDS011;7432;48.728;9.154;2023-08-31T01:56:32;5.07;;;4.67;;
14688;SDS011;7432;48.728;9.154;2023-08-31T01:58:59;4.33;;;3.93;;
14688;SDS011;7432;48.728;9.154;2023-08-31T02:01:26;4.73;;;4.43;;
14688;SDS011;7432;48.728;9.154;2023-08-31T02:03:52;4.60;;;4.20;;
14688;SDS011;7432;48.728;9.154;2023-08-31T02:06:18;5.00;;;4.70;;
14688;SDS011;7432;48.728;9.154;2023-08-31T02:08:45;5.13;;;4.73;;
14688;SDS011;7432;48.728;9.154;2023-08-31T02:11:12;5.00;;;4.50;;
14688;SDS011;7432;48.728;9.154;2023-08-31T02:13:39;5.00;;;4.60;;
14688;SDS011;7432;48.728;9.154;2023-08-31T02:16:07;4.90;;;4.50;;
14688;SDS011;7432;48.728;9.154;2023-08-31T02:18:33;4.60;;;4.30;;
14688;SDS011;7432;48.728;9.154;2023-08-31T02:21:00;5.20;;;4.80;;
14688;SDS011;7432;48.728;9.154;2023-08-31T02:23:26;5.13;;;4.73;;
14688;SDS011;7432;48.728;9.154;2023-08-31T02:25:53;5.13;;;4.73;;
14688;SDS011;7432;48.728;9.154;2023-08-31T02:28:19;4.90;;;4.50;;
14688;SDS011;7432;48.728;9.154;2023-08-31T02:30:46;5.10;;;4.63;;
14688;SDS011;7432;48.728;9.154;2023-08-31T02:33:24;4.97;;;4.57;;
14688;SDS011;7432;48.728;9.154;2023-08-31T02:35:50;4.90;;;4.50;;
14688;SDS011;7432;48.728;9.154;2023-08-31T02:38:17;4.87;;;4.37;;
14688;SDS011;7432;48.728;9.154;2023-08-31T02:40:45;5.03;;;4.60;;
14688;SDS011;7432;48.728;9.154;2023-08-31T02:43:12;5.47;;;4.93;;
14688;SDS011;7432;48.728;9.154;2023-08-31T02:45:38;5.20;;;4.80;;
14688;SDS011;7432;48.728;9.154;2023-08-31T02:48:06;4.20;;;3.90;;
14688;SDS011;7432;48.728;9.154;2023-08-31T02:50:35;5.67;;;5.27;;
14688;SDS011;7432;48.728;9.154;2023-08-31T02:53:02;5.17;;;4.77;;
14688;SDS011;7432;48.728;9.154;2023-08-31T02:55:28;6.13;;;5.13;;
14688;SDS011;7432;48.728;9.154;2023-08-31T02:57:55;5.53;;;5.03;;
14688;SDS011;7432;48.728;9.154;2023-08-31T03:00:21;5.00;;;4.60;;
14688;SDS011;7432;48.728;9.154;2023-08-31T03:02:48;5.33;;;4.93;;
14688;SDS011;7432;48.728;9.154;2023-08-31T03:05:15;4.90;;;4.60;;
14688;SDS011;7432;48.728;9.154;2023-08-31T03:07:42;5.50;;;5.03;;
14688;SDS011;7432;48.728;9.154;2023-08-31T03:10:09;5.50;;;5.10;;
14688;SDS011;7432;48.728;9.154;2023-08-31T03:12:37;6.00;;;5.40;;
14688;SDS011;7432;48.728;9.154;2023-08-31T03:15:04;5.47;;;5.07;;
14688;SDS011;7432;48.728;9.154;2023-08-31T03:17:32;5.20;;;4.80;;
14688;SDS011;7432;48.728;9.154;2023-08-31T03:19:58;5.63;;;5.13;;
14688;SDS011;7432;48.728;9.154;2023-08-31T03:22:24;6.03;;;5.57;;
14688;SDS011;7432;48.728;9.154;2023-08-31T03:24:52;6.40;;;5.80;;
14688;SDS011;7432;48.728;9.154;2023-08-31T03:27:19;5.83;;;5.33;;
14688;SDS011;7432;48.728;9.154;2023-08-31T03:29:45;5.57;;;5.07;;
14688;SDS011;7432;48.728;9.154;2023-08-31T03:32:11;5.63;;;5.23;;
14688;SDS011;7432;48.728;9.154;2023-08-31T03:34:38;5.93;;;5.50;;
14688;SDS011;7432;48.728;9.154;2023-08-31T03:37:04;5.87;;;5.57;;
14688;SDS011;7432;48.728;9.154;2023-08-31T03:39:31;6.47;;;5.77;;
14688;SDS011;7432;48.728;9.154;2023-08-31T03:41:59;6.03;;;5.63;;
14688;SDS011;7432;48.728;9.154;2023-08-31T03:44:25;5.80;;;5.37;;
14688;SDS011;7432;48.728;9.154;2023-08-31T03:46:51;6.57;;;5.90;;
14688;SDS011;7432;48.728;9.154;2023-08-31T03:49:18;6.20;;;5.70;;
14688;SDS011;7432;48.728;9.154;2023-08-31T03:51:44;5.43;;;5.03;;
14688;SDS011;7432;48.728;9.154;2023-08-31T03:54:11;6.37;;;5.50;;
14688;SDS011;7432;48.728;9.154;2023-08-31T03:56:37;6.27;;;5.33;;
14688;SDS011;7432;48.728;9.154;2023-08-31T03:59:05;6.07;;;5.53;;
14688;SDS011;7432;48.728;9.154;2023-08-31T04:01:32;5.73;;;5.23;;
14688;SDS011;7432;48.728;9.154;2023-08-31T04:03:58;6.57;;;5.97;;
14688;SDS011;7432;48.728;9.154;2023-08-31T04:06:25;6.13;;;5.70;;
14688;SDS011;7432;48.728;9.154;2023-08-31T04:08:53;7.50;;;6.00;;
14688;SDS011;7432;48.728;9.154;2023-08-31T04:11:20;5.97;;;5.47;;
14688;SDS011;7432;48.728;9.154;2023-08-31T04:13:46;6.40;;;5.63;;
14688;SDS011;7432;48.728;9.154;2023-08-31T04:16:14;6.20;;;5.80;;
14688;SDS011;7432;48.728;9.154;2023-08-31T04:18:40;6.50;;;5.87;;
14688;SDS011;7432;48.728;9.154;2023-08-31T04:21:07;6.07;;;5.60;;
14688;SDS011;7432;48.728;9.154;2023-08-31T04:23:34;5.80;;;5.30;;
14688;SDS011;7432;48.728;9.154;2023-08-31T04:26:02;6.77;;;5.80;;
14688;SDS011;7432;48.728;9.154;2023-08-31T04:28:35;6.33;;;5.77;;
14688;SDS011;7432;48.728;9.154;2023-08-31T04:31:04;6.57;;;5.63;;
14688;SDS011;7432;48.728;9.154;2023-08-31T04:33:33;6.33;;;5.60;;
14688;SDS011;7432;48.728;9.154;2023-08-31T04:35:59;8.30;;;5.93;;
14688;SDS011;7432;48.728;9.154;2023-08-31T04:38:26;5.90;;;5.57;;
14688;SDS011;7432;48.728;9.154;2023-08-31T04:40:53;6.83;;;6.30;;
14688;SDS011;7432;48.728;9.154;2023-08-31T04:43:19;6.37;;;5.90;;
14688;SDS011;7432;48.728;9.154;2023-08-31T04:45:46;6.03;;;5.53;;
14688;SDS011;7432;48.728;9.154;2023-08-31T04:48:12;6.97;;;6.47;;
14688;SDS011;7432;48.728;9.154;2023-08-31T04:50:42;6.50;;;6.00;;
14688;SDS011;7432;48.728;9.154;2023-08-31T04:53:08;6.47;;;5.97;;
14688;SDS011;7432;48.728;9.154;2023-08-31T04:55:34;6.70;;;6.10;;
14688;SDS011;7432;48.728;9.154;2023-08-31T04:58:01;6.80;;;6.00;;
14688;SDS011;7432;48.728;9.154;2023-08-31T05:00:27;6.53;;;5.93;;
14688;SDS011;7432;48.728;9.154;2023-08-31T05:02:55;6.93;;;6.33;;
14688;SDS011;7432;48.728;9.154;2023-08-31T05:05:21;6.60;;;6.10;;
14688;SDS011;7432;48.728;9.154;2023-08-31T05:07:49;6.07;;;5.57;;
14688;SDS011;7432;48.728;9.154;2023-08-31T05:10:15;6.67;;;6.17;;
14688;SDS011;7432;48.728;9.154;2023-08-31T05:12:42;7.17;;;6.20;;
14688;SDS011;7432;48.728;9.154;2023-08-31T05:15:08;7.00;;;6.40;;
14688;SDS011;7432;48.728;9.154;2023-08-31T05:17:35;6.07;;;5.60;;
14688;SDS011;7432;48.728;9.154;2023-08-31T05:20:02;6.67;;;5.97;;
14688;SDS011;7432;48.728;9.154;2023-08-31T05:22:29;6.60;;;6.00;;
14688;SDS011;7432;48.728;9.154;2023-08-31T05:24:57;6.57;;;5.97;;
14688;SDS011;7432;48.728;9.154;2023-08-31T05:27:25;6.50;;;6.00;;
14688;SDS011;7432;48.728;9.154;2023-08-31T05:29:51;6.53;;;5.93;;
14688;SDS011;7432;48.728;9.154;2023-08-31T05:32:18;6.90;;;6.40;;
14688;SDS011;7432;48.728;9.154;2023-08-31T05:34:44;6.83;;;6.30;;
14688;SDS011;7432;48.728;9.154;2023-08-31T05:37:10;6.87;;;6.17;;
14688;SDS011;7432;48.728;9.154;2023-08-31T05:39:37;6.27;;;5.77;;
14688;SDS011;7432;48.728;9.154;2023-08-31T05:42:05;5.90;;;5.40;;
14688;SDS011;7432;48.728;9.154;2023-08-31T05:44:31;6.13;;;5.60;;
14688;SDS011;7432;48.728;9.154;2023-08-31T05:46:57;8.53;;;7.73;;
14688;SDS011;7432;48.728;9.154;2023-08-31T05:49:24;7.23;;;6.60;;
14688;SDS011;7432;48.728;9.154;2023-08-31T05:51:50;6.90;;;6.20;;
14688;SDS011;7432;48.728;9.154;2023-08-31T05:54:17;6.80;;;6.20;;
14688;SDS011;7432;48.728;9.154;2023-08-31T05:56:43;6.10;;;5.60;;
14688;SDS011;7432;48.728;9.154;2023-08-31T05:59:11;5.80;;;5.20;;
14688;SDS011;7432;48.728;9.154;2023-08-31T06:01:37;6.17;;;5.77;;
14688;SDS011;7432;48.728;9.154;2023-08-31T06:04:03;6.70;;;6.00;;
14688;SDS011;7432;48.728;9.154;2023-08-31T06:06:30;6.70;;;6.20;;
14688;SDS011;7432;48.728;9.154;2023-08-31T06:08:57;6.00;;;5.50;;
14688;SDS011;7432;48.728;9.154;2023-08-31T06:11:24;7.77;;;6.20;;
14688;SDS011;7432;48.728;9.154;2023-08-31T06:13:50;7.57;;;6.80;;
14688;SDS011;7432;48.728;9.154;2023-08-31T06:16:18;7.40;;;6.80;;
14688;SDS011;7432;48.728;9.154;2023-08-31T06:18:44;8.60;;;7.17;;
14688;SDS011;7432;48.728;9.154;2023-08-31T06:21:10;7.80;;;7.20;;
14688;SDS011;7432;48.728;9.154;2023-08-31T06:23:37;8.50;;;6.70;;
14688;SDS011;7432;48.728;9.154;2023-08-31T06:26:03;7.50;;;6.87;;
14688;SDS011;7432;48.728;9.154;2023-08-31T06:28:30;6.87;;;6.27;;
14688;SDS011;7432;48.728;9.154;2023-08-31T06:30:56;6.40;;;5.90;;
14688;SDS011;7432;48.728;9.154;2023-08-31T06:33:24;7.93;;;6.60;;
14688;SDS011;7432;48.728;9.154;2023-08-31T06:35:50;7.10;;;6.47;;
14688;SDS011;7432;48.728;9.154;2023-08-31T06:38:17;6.70;;;6.10;;
14688;SDS011;7432;48.728;9.154;2023-08-31T06:40:43;7.50;;;6.90;;
14688;SDS011;7432;48.728;9.154;2023-08-31T06:43:10;10.30;;;9.40;;
14688;SDS011;7432;48.728;9.154;2023-08-31T06:45:36;10.20;;;9.52;;
14688;SDS011;7432;48.728;9.154;2023-08-31T06:48:03;10.50;;;9.70;;
14688;SDS011;7432;48.728;9.154;2023-08-31T06:50:32;11.73;;;10.75;;
14688;SDS011;7432;48.728;9.154;2023-08-31T06:53:01;10.93;;;10.13;;
14688;SDS011;7432;48.728;9.154;2023-08-31T06:55:28;11.60;;;10.80;;
14688;SDS011;7432;48.728;9.154;2023-08-31T06:57:54;11.20;;;10.30;;
14688;SDS011;7432;48.728;9.154;2023-08-31T07:00:21;10.30;;;9.68;;
14688;SDS011;7432;48.728;9.154;2023-08-31T07:02:47;10.50;;;9.60;;
14688;SDS011;7432;48.728;9.154;2023-08-31T07:05:14;10.77;;;9.82;;
14688;SDS011;7432;48.728;9.154;2023-08-31T07:07:41;9.52;;;8.93;;
14688;SDS011;7432;48.728;9.154;2023-08-31T07:10:08;9.52;;;8.73;;
14688;SDS011;7432;48.728;9.154;2023-08-31T07:12:34;10.15;;;9.32;;
14688;SDS011;7432;48.728;9.154;2023-08-31T07:15:01;9.48;;;8.88;;
14688;SDS011;7432;48.728;9.154;2023-08-31T07:17:28;10.13;;;9.52;;
14688;SDS011;7432;48.728;9.154;2023-08-31T07:19:55;10.20;;;9.40;;
14688;SDS011;7432;48.728;9.154;2023-08-31T07:22:21;10.52;;;9.63;;
14688;SDS011;7432;48.728;9.154;2023-08-31T07:24:49;10.30;;;9.48;;
14688;SDS011;7432;48.728;9.154;2023-08-31T07:27:16;9.90;;;9.10;;
14688;SDS011;7432;48.728;9.154;2023-08-31T07:29:42;9.80;;;9.07;;
14688;SDS011;7432;48.728;9.154;2023-08-31T07:32:09;10.10;;;9.50;;
14688;SDS011;7432;48.728;9.154;2023-08-31T07:34:35;10.25;;;9.45;;
14688;SDS011;7432;48.728;9.154;2023-08-31T07:37:02;9.38;;;8.77;;
14688;SDS011;7432;48.728;9.154;2023-08-31T07:39:29;10.70;;;9.73;;
14688;SDS011;7432;48.728;9.154;2023-08-31T07:41:56;10.40;;;9.60;;
14688;SDS011;7432;48.728;9.154;2023-08-31T07:44:24;9.90;;;9.23;;
14688;SDS011;7432;48.728;9.154;2023-08-31T07:46:50;9.98;;;9.27;;
14688;SDS011;7432;48.728;9.154;2023-08-31T07:49:17;9.57;;;8.98;;
14688;SDS011;7432;48.728;9.154;2023-08-31T07:51:43;9.70;;;8.98;;
14688;SDS011;7432;48.728;9.154;2023-08-31T07:54:10;9.30;;;8.70;;
14688;SDS011;7432;48.728;9.154;2023-08-31T07:56:37;9.75;;;8.88;;
14688;SDS011;7432;48.728;9.154;2023-08-31T07:59:06;10.27;;;9.48;;
14688;SDS011;7432;48.728;9.154;2023-08-31T08:01:33;9.82;;;9.18;;
14688;SDS011;7432;48.728;9.154;2023-08-31T08:03:59;9.98;;;9.38;;
14688;SDS011;7432;48.728;9.154;2023-08-31T08:06:25;10.60;;;9.80;;
14688;SDS011;7432;48.728;9.154;2023-08-31T08:08:52;10.90;;;9.90;;
14688;SDS011;7432;48.728;9.154;2023-08-31T08:11:19;10.30;;;9.60;;
14688;SDS011;7432;48.728;9.154;2023-08-31T08:13:45;11.10;;;10.20;;
14688;SDS011;7432;48.728;9.154;2023-08-31T08:16:13;11.13;;;10.32;;
14688;SDS011;7432;48.728;9.154;2023-08-31T08:18:39;10.57;;;9.80;;
14688;SDS011;7432;48.728;9.154;2023-08-31T08:21:06;11.38;;;10.68;;
14688;SDS011;7432;48.728;9.154;2023-08-31T08:23:32;12.05;;;10.98;;
14688;SDS011;7432;48.728;9.154;2023-08-31T08:25:58;11.80;;;11.00;;
14688;SDS011;7432;48.728;9.154;2023-08-31T08:28:25;11.80;;;10.75;;
14688;SDS011;7432;48.728;9.154;2023-08-31T08:30:53;11.88;;;11.18;;
14688;SDS011;7432;48.728;9.154;2023-08-31T08:33:21;11.52;;;10.82;;
14688;SDS011;7432;48.728;9.154;2023-08-31T08:35:47;12.00;;;11.20;;
14688;SDS011;7432;48.728;9.154;2023-08-31T08:38:14;11.80;;;10.90;;
14688;SDS011;7432;48.728;9.154;2023-08-31T08:40:40;11.52;;;10.63;;
14688;SDS011;7432;48.728;9.154;2023-08-31T08:43:07;11.40;;;10.60;;
14688;SDS011;7432;48.728;9.154;2023-08-31T08:45:35;11.68;;;10.80;;
14688;SDS011;7432;48.728;9.154;2023-08-31T08:48:06;11.60;;;10.80;;
14688;SDS011;7432;48.728;9.154;2023-08-31T08:50:35;11.98;;;11.07;;
14688;SDS011;7432;48.728;9.154;2023-08-31T08:53:02;12.70;;;11.63;;
14688;SDS011;7432;48.728;9.154;2023-08-31T08:55:29;12.70;;;11.77;;
14688;SDS011;7432;48.728;9.154;2023-08-31T08:57:57;11.73;;;10.90;;
14688;SDS011;7432;48.728;9.154;2023-08-31T09:00:24;11.88;;;11.07;;
14688;SDS011;7432;48.728;9.154;2023-08-31T09:02:52;11.70;;;10.77;;
14688;SDS011;7432;48.728;9.154;2023-08-31T09:05:18;12.70;;;11.63;;
14688;SDS011;7432;48.728;9.154;2023-08-31T09:08:01;11.70;;;10.90;;
14688;SDS011;7432;48.728;9.154;2023-08-31T09:10:32;11.27;;;10.48;;
14688;SDS011;7432;48.728;9.154;2023-08-31T09:13:00;11.55;;;10.80;;
14688;SDS011;7432;48.728;9.154;2023-08-31T09:15:35;11.82;;;10.93;;
14688;SDS011;7432;48.728;9.154;2023-08-31T09:18:03;11.13;;;10.40;;
14688;SDS011;7432;48.728;9.154;2023-08-31T09:20:29;11.45;;;10.55;;
14688;SDS011;7432;48.728;9.154;2023-08-31T09:22:56;10.95;;;10.25;;
14688;SDS011;7432;48.728;9.154;2023-08-31T09:25:23;11.75;;;10.95;;
14688;SDS011;7432;48.728;9.154;2023-08-31T09:27:50;10.40;;;9.70;;
14688;SDS011;7432;48.728;9.154;2023-08-31T09:30:17;11.63;;;10.82;;
14688;SDS011;7432;48.728;9.154;2023-08-31T09:32:43;11.95;;;11.05;;
14688;SDS011;7432;48.728;9.154;2023-08-31T09:35:18;11.30;;;10.40;;
14688;SDS011;7432;48.728;9.154;2023-08-31T09:37:50;11.13;;;10.02;;
14688;SDS011;7432;48.728;9.154;2023-08-31T09:40:21;12.18;;;11.30;;
14688;SDS011;7432;48.728;9.154;2023-08-31T09:42:50;11.75;;;10.80;;
14688;SDS011;7432;48.728;9.154;2023-08-31T09:45:17;11.60;;;10.85;;
14688;SDS011;7432;48.728;9.154;2023-08-31T09:47:44;11.75;;;10.85;;
14688;SDS011;7432;48.728;9.154;2023-08-31T09:50:10;11.38;;;10.68;;
14688;SDS011;7432;48.728;9.154;2023-08-31T09:52:37;10.68;;;10.07;;
14688;SDS011;7432;48.728;9.154;2023-08-31T09:55:05;11.80;;;11.00;;
14688;SDS011;7432;48.728;9.154;2023-08-31T09:57:32;12.00;;;11.10;;
14688;SDS011;7432;48.728;9.154;2023-08-31T10:00:01;11.38;;;10.70;;
14688;SDS011;7432;48.728;9.154;2023-08-31T10:02:28;12.10;;;11.40;;
14688;SDS011;7432;48.728;9.154;2023-08-31T10:04:56;11.77;;;10.93;;
14688;SDS011;7432;48.728;9.154;2023-08-31T10:07:25;11.50;;;10.68;;
14688;SDS011;7432;48.728;9.154;2023-08-31T10:09:52;11.82;;;11.00;;
14688;SDS011;7432;48.728;9.154;2023-08-31T10:12:19;12.77;;;11.77;;
14688;SDS011;7432;48.728;9.154;2023-08-31T10:14:47;11.50;;;10.70;;
14688;SDS011;7432;48.728;9.154;2023-08-31T10:17:18;11.43;;;10.63;;
14688;SDS011;7432;48.728;9.154;2023-08-31T10:19:46;10.85;;;9.90;;
14688;SDS011;7432;48.728;9.154;2023-08-31T10:22:13;12.23;;;11.43;;
14688;SDS011;7432;48.728;9.154;2023-08-31T10:27:24;11.43;;;10.63;;
14688;SDS011;7432;48.728;9.154;2023-08-31T10:29:51;11.95;;;11.05;;
14688;SDS011;7432;48.728;9.154;2023-08-31T10:32:19;12.27;;;11.18;;
14688;SDS011;7432;48.728;9.154;2023-08-31T10:37:31;11.35;;;10.55;;
14688;SDS011;7432;48.728;9.154;2023-08-31T10:40:06;11.93;;;11.05;;
14688;SDS011;7432;48.728;9.154;2023-08-31T10:42:33;11.73;;;10.93;;
14688;SDS011;7432;48.728;9.154;2023-08-31T10:45:07;11.90;;;11.00;;
14688;SDS011;7432;48.728;9.154;2023-08-31T10:47:38;12.88;;;11.88;;
14688;SDS011;7432;48.728;9.154;2023-08-31T10:50:18;11.68;;;10.77;;
14688;SDS011;7432;48.728;9.154;2023-08-31T10:52:46;11.80;;;10.82;;
14688;SDS011;7432;48.728;9.154;2023-08-31T10:55:12;11.65;;;10.63;;
14688;SDS011;7432;48.728;9.154;2023-08-31T10:57:39;12.02;;;11.13;;
14688;SDS011;7432;48.728;9.154;2023-08-31T11:00:07;11.38;;;10.48;;
14688;SDS011;7432;48.728;9.154;2023-08-31T11:02:34;12.10;;;11.18;;
14688;SDS011;7432;48.728;9.154;2023-08-31T11:05:05;11.02;;;10.23;;
14688;SDS011;7432;48.728;9.154;2023-08-31T11:07:33;11.45;;;10.65;;
14688;SDS011;7432;48.728;9.154;2023-08-31T11:10:10;11.65;;;10.80;;
14688;SDS011;7432;48.728;9.154;2023-08-31T11:12:38;11.05;;;10.35;;
14688;SDS011;7432;48.728;9.154;2023-08-31T11:15:05;11.90;;;11.00;;
14688;SDS011;7432;48.728;9.154;2023-08-31T11:17:33;11.38;;;10.38;;
14688;SDS011;7432;48.728;9.154;2023-08-31T11:19:59;12.02;;;11.18;;
14688;SDS011;7432;48.728;9.154;2023-08-31T11:22:31;11.82;;;10.85;;
14688;SDS011;7432;48.728;9.154;2023-08-31T11:24:58;12.10;;;11.02;;
14688;SDS011;7432;48.728;9.154;2023-08-31T11:27:25;11.48;;;10.57;;
14688;SDS011;7432;48.728;9.154;2023-08-31T11:29:52;13.25;;;11.88;;
14688;SDS011;7432;48.728;9.154;2023-08-31T11:32:18;11.27;;;10.65;;
14688;SDS011;7432;48.728;9.154;2023-08-31T11:34:44;12.38;;;11.30;;
14688;SDS011;7432;48.728;9.154;2023-08-31T11:37:12;12.75;;;11.85;;
14688;SDS011;7432;48.728;9.154;2023-08-31T11:39:42;12.23;;;11.00;;
14688;SDS011;7432;48.728;9.154;2023-08-31T11:42:15;12.30;;;11.10;;
14688;SDS011;7432;48.728;9.154;2023-08-31T11:44:43;11.60;;;10.80;;
14688;SDS011;7432;48.728;9.154;2023-08-31T11:47:10;11.55;;;10.75;;
14688;SDS011;7432;48.728;9.154;2023-08-31T11:49:36;11.68;;;10.73;;
14688;SDS011;7432;48.728;9.154;2023-08-31T11:52:03;11.50;;;10.70;;
14688;SDS011;7432;48.728;9.154;2023-08-31T11:54:30;11.60;;;10.90;;
14688;SDS011;7432;48.728;9.154;2023-08-31T11:56:58;10.82;;;10.02;;
14688;SDS011;7432;48.728;9.154;2023-08-31T11:59:24;11.32;;;10.50;;
14688;SDS011;7432;48.728;9.154;2023-08-31T12:01:51;10.85;;;9.85;;
14688;SDS011;7432;48.728;9.154;2023-08-31T12:04:20;11.68;;;10.70;;
14688;SDS011;7432;48.728;9.154;2023-08-31T12:06:49;11.40;;;10.50;;
14688;SDS011;7432;48.728;9.154;2023-08-31T12:09:17;11.40;;;10.60;;
14688;SDS011;7432;48.728;9.154;2023-08-31T12:11:48;11.30;;;10.40;;
14688;SDS011;7432;48.728;9.154;2023-08-31T12:14:20;11.90;;;10.88;;
14688;SDS011;7432;48.728;9.154;2023-08-31T12:16:48;10.80;;;10.10;;
14688;SDS011;7432;48.728;9.154;2023-08-31T12:19:15;11.32;;;10.52;;
14688;SDS011;7432;48.728;9.154;2023-08-31T12:21:42;11.90;;;10.95;;
14688;SDS011;7432;48.728;9.154;2023-08-31T12:24:10;11.48;;;10.73;;
14688;SDS011;7432;48.728;9.154;2023-08-31T12:26:37;10.57;;;9.68;;
14688;SDS011;7432;48.728;9.154;2023-08-31T12:29:04;12.48;;;11.55;;
14688;SDS011;7432;48.728;9.154;2023-08-31T12:31:32;11.50;;;10.68;;
14688;SDS011;7432;48.728;9.154;2023-08-31T12:33:58;12.07;;;11.18;;
14688;SDS011;7432;48.728;9.154;2023-08-31T12:36:29;12.52;;;11.43;;
14688;SDS011;7432;48.728;9.154;2023-08-31T12:38:55;11.27;;;10.38;;
14688;SDS011;7432;48.728;9.154;2023-08-31T12:41:23;11.82;;;11.02;;
14688;SDS011;7432;48.728;9.154;2023-08-31T12:43:50;10.30;;;9.60;;
14688;SDS011;7432;48.728;9.154;2023-08-31T12:46:16;11.48;;;10.75;;
14688;SDS011;7432;48.728;9.154;2023-08-31T12:48:44;11.45;;;10.55;;
14688;SDS011;7432;48.728;9.154;2023-08-31T12:51:10;11.70;;;10.90;;
14688;SDS011;7432;48.728;9.154;2023-08-31T12:53:37;11.32;;;10.45;;
14688;SDS011;7432;48.728;9.154;2023-08-31T12:56:04;11.55;;;10.70;;
14688;SDS011;7432;48.728;9.154;2023-08-31T12:58:31;11.27;;;10.48;;
14688;SDS011;7432;48.728;9.154;2023-08-31T13:00:57;12.02;;;11.20;;
14688;SDS011;7432;48.728;9.154;2023-08-31T13:03:24;12.07;;;11.27;;
14688;SDS011;7432;48.728;9.154;2023-08-31T13:05:52;12.40;;;11.30;;
14688;SDS011;7432;48.728;9.154;2023-08-31T13:08:18;12.23;;;11.23;;
14688;SDS011;7432;48.728;9.154;2023-08-31T13:10:50;12.73;;;11.82;;
14688;SDS011;7432;48.728;9.154;2023-08-31T13:13:17;11.65;;;10.65;;
14688;SDS011;7432;48.728;9.154;2023-08-31T13:15:45;11.98;;;10.98;;
14688;SDS011;7432;48.728;9.154;2023-08-31T13:18:11;11.65;;;10.75;;
14688;SDS011;7432;48.728;9.154;2023-08-31T13:20:38;12.43;;;11.43;;
14688;SDS011;7432;48.728;9.154;2023-08-31T13:23:06;11.27;;;10.48;;
14688;SDS011;7432;48.728;9.154;2023-08-31T13:25:32;11.38;;;10.60;;
14688;SDS011;7432;48.728;9.154;2023-08-31T13:27:59;12.18;;;11.07;;
14688;SDS011;7432;48.728;9.154;2023-08-31T13:30:25;11.00;;;10.20;;
14688;SDS011;7432;48.728;9.154;2023-08-31T13:32:51;11.00;;;10.18;;
14688;SDS011;7432;48.728;9.154;2023-08-31T13:35:18;11.20;;;10.30;;
14688;SDS011;7432;48.728;9.154;2023-08-31T13:37:44;10.88;;;9.90;;
14688;SDS011;7432;48.728;9.154;2023-08-31T13:40:12;10.73;;;9.82;;
14688;SDS011;7432;48.728;9.154;2023-08-31T13:42:47;10.55;;;9.82;;
14688;SDS011;7432;48.728;9.154;2023-08-31T13:45:19;11.50;;;10.70;;
14688;SDS011;7432;48.728;9.154;2023-08-31T13:47:45;11.45;;;10.55;;
14688;SDS011;7432;48.728;9.154;2023-08-31T13:50:14;10.38;;;9.57;;
14688;SDS011;7432;48.728;9.154;2023-08-31T13:52:40;11.27;;;10.15;;
14688;SDS011;7432;48.728;9.154;2023-08-31T13:55:07;10.82;;;9.93;;
14688;SDS011;7432;48.728;9.154;2023-08-31T13:57:35;10.57;;;9.88;;
14688;SDS011;7432;48.728;9.154;2023-08-31T14:00:02;11.45;;;10.48;;
14688;SDS011;7432;48.728;9.154;2023-08-31T14:02:29;11.05;;;10.00;;
14688;SDS011;7432;48.728;9.154;2023-08-31T14:04:56;11.13;;;10.32;;
14688;SDS011;7432;48.728;9.154;2023-08-31T14:07:23;11.30;;;10.57;;
14688;SDS011;7432;48.728;9.154;2023-08-31T14:09:49;11.50;;;10.70;;
14688;SDS011;7432;48.728;9.154;2023-08-31T14:12:16;11.48;;;10.57;;
14688;SDS011;7432;48.728;9.154;2023-08-31T14:14:43;10.60;;;9.70;;
14688;SDS011;7432;48.728;9.154;2023-08-31T14:17:11;10.63;;;9.88;;
14688;SDS011;7432;48.728;9.154;2023-08-31T14:19:37;11.13;;;10.35;;
14688;SDS011;7432;48.728;9.154;2023-08-31T14:22:04;11.30;;;10.50;;
14688;SDS011;7432;48.728;9.154;2023-08-31T14:24:30;11.13;;;10.43;;
14688;SDS011;7432;48.728;9.154;2023-08-31T14:26:57;11.27;;;10.48;;
14688;SDS011;7432;48.728;9.154;2023-08-31T14:29:23;11.13;;;10.23;;
14688;SDS011;7432;48.728;9.154;2023-08-31T14:31:51;11.30;;;10.50;;
14688;SDS011;7432;48.728;9.154;2023-08-31T14:34:19;11.45;;;10.32;;
14688;SDS011;7432;48.728;9.154;2023-08-31T14:36:45;10.50;;;9.60;;
14688;SDS011;7432;48.728;9.154;2023-08-31T14:39:12;11.05;;;10.25;;
14688;SDS011;7432;48.728;9.154;2023-08-31T14:41:39;10.98;;;10.13;;
14688;SDS011;7432;48.728;9.154;2023-08-31T14:44:06;11.52;;;10.23;;
14688;SDS011;7432;48.728;9.154;2023-08-31T14:46:33;10.07;;;9.10;;
14688;SDS011;7432;48.728;9.154;2023-08-31T14:49:01;9.82;;;9.18;;
14688;SDS011;7432;48.728;9.154;2023-08-31T14:51:29;10.75;;;9.90;;
14688;SDS011;7432;48.728;9.154;2023-08-31T14:53:55;11.10;;;10.20;;
14688;SDS011;7432;48.728;9.154;2023-08-31T14:56:21;10.40;;;9.60;;